page 5523 of 1003898 registered users

eBook PostsUsers

  1. 0sphere6drive registered @ 2013-01-20 05:52:17, last login @ 2013-01-20 05:52:17
  2. 0marginalto04 registered @ 2013-01-20 05:53:21, last login @ 2013-01-20 05:53:21
  3. 0coldmetal27 registered @ 2013-01-20 05:54:00, last login @ 2013-01-20 05:54:00
  4. 0branchpond60 registered @ 2013-01-20 05:54:03, last login @ 2013-01-20 05:54:03
  5. 0fakflaft registered @ 2013-01-20 05:54:31, last login @ 2013-01-20 05:54:31
  6. 0relish80expert registered @ 2013-01-20 05:54:35, last login @ 2013-01-20 05:54:35
  7. 0cribring23 registered @ 2013-01-20 05:55:25, last login @ 2013-01-20 05:55:25
  8. 0sexprice36 registered @ 2013-01-20 05:56:02, last login @ 2013-01-20 05:56:02
  9. 0bar20tennis registered @ 2013-01-20 05:57:51, last login @ 2013-01-20 05:57:51
  10. 0jeep06land registered @ 2013-01-20 05:58:01, last login @ 2013-01-20 05:58:01
  11. 0open7summer registered @ 2013-01-20 05:58:20, last login @ 2013-01-20 05:58:20
  12. 0arrow44field registered @ 2013-01-20 05:59:20, last login @ 2013-01-20 05:59:20
  13. 0wordspruce6 registered @ 2013-01-20 06:00:07, last login @ 2013-01-20 06:00:07
  14. 0owlstock45 registered @ 2013-01-20 06:02:18, last login @ 2013-01-20 06:02:18
  15. 0nose0sound registered @ 2013-01-20 06:02:25, last login @ 2013-01-20 06:02:25
  16. 0owner7decade registered @ 2013-01-20 06:04:39, last login @ 2013-01-20 06:04:39
  17. 0sarah0wall registered @ 2013-01-20 06:06:15, last login @ 2013-01-20 06:52:43
  18. 0dewfamily5 registered @ 2013-01-20 06:06:50, last login @ 2013-01-20 06:06:50
  19. 0taiwan7child registered @ 2013-01-20 06:07:14, last login @ 2013-01-20 06:07:14
  20. 0summer62hose registered @ 2013-01-20 06:09:34, last login @ 2013-01-20 06:09:34
  21. 0april57conga registered @ 2013-01-20 06:10:38, last login @ 2013-01-20 06:45:01
  22. 0butter43pail registered @ 2013-01-20 06:11:14, last login @ 2013-01-20 06:11:14
  23. 0theoryslope80 registered @ 2013-01-20 06:12:31, last login @ 2013-01-20 06:12:31
  24. 0cardsmell17 registered @ 2013-01-20 06:12:45, last login @ 2013-01-20 06:12:45
  25. 0patchpart7 registered @ 2013-01-20 06:13:01, last login @ 2013-01-20 06:13:01
  26. 0Buggz1993 registered @ 2013-01-20 06:16:46, last login @ 2013-01-20 06:16:46
  27. 0quit27swiss registered @ 2013-01-20 06:17:06, last login @ 2013-01-20 06:17:06
  28. 0effect89stew registered @ 2013-01-20 06:18:28, last login @ 2013-01-20 06:18:28
  29. 0nylon5notify registered @ 2013-01-20 06:20:17, last login @ 2013-01-20 06:20:17
  30. 0hip12frost registered @ 2013-01-20 06:21:02, last login @ 2013-01-20 06:37:17
  31. 0visepants10 registered @ 2013-01-20 06:21:28, last login @ 2013-01-20 06:21:28
  32. 0noteplate2 registered @ 2013-01-20 06:27:19, last login @ 2013-01-20 06:27:19
  33. 0oceansilver1 registered @ 2013-01-20 06:28:35, last login @ 2013-01-20 06:28:35
  34. 0danielnotify39 registered @ 2013-01-20 06:28:49, last login @ 2013-01-20 06:28:49
  35. 0courtsmile23 registered @ 2013-01-20 06:29:55, last login @ 2013-01-20 06:29:55
  36. 0tunabone3 registered @ 2013-01-20 06:30:27, last login @ 2013-01-20 06:30:27
  37. 0flamesubway21 registered @ 2013-01-20 06:31:31, last login @ 2013-01-20 06:31:31
  38. 0matt2424matt registered @ 2013-01-20 06:35:04, last login @ 2013-01-20 06:35:04
  39. 0saw99tongue registered @ 2013-01-20 06:36:11, last login @ 2013-01-20 06:36:11
  40. 0knot52motion registered @ 2013-01-20 06:37:18, last login @ 2013-01-20 06:37:18
  41. 0whitecircle80 registered @ 2013-01-20 06:37:31, last login @ 2013-01-20 06:37:31
  42. 0carp0bass registered @ 2013-01-20 06:37:51, last login @ 2013-01-20 06:37:51
  43. 0polishcone0 registered @ 2013-01-20 06:40:50, last login @ 2013-01-20 06:56:29
  44. 0pruner11butane registered @ 2013-01-20 06:41:59, last login @ 2013-01-20 06:41:59
  45. 0Danio0308 registered @ 2013-01-20 06:45:15, last login @ 2013-01-20 06:45:15
  46. 0dustmaria37 registered @ 2013-01-20 06:45:16, last login @ 2013-01-20 06:45:16
  47. 0loaf28hat registered @ 2013-01-20 06:45:23, last login @ 2013-01-20 06:45:23
  48. 0death42sound registered @ 2013-01-20 06:45:45, last login @ 2013-01-20 06:45:45
  49. 0look07edger registered @ 2013-01-20 06:46:17, last login @ 2013-01-20 06:46:17
  50. 0dockfeet94 registered @ 2013-01-20 06:46:19, last login @ 2013-01-20 06:46:19
  51. 0market82knight registered @ 2013-01-20 06:46:51, last login @ 2013-01-20 06:46:51
  52. 0alloy5ocelot registered @ 2013-01-20 06:48:36, last login @ 2013-01-20 06:48:36
  53. 0lungecoach4 registered @ 2013-01-20 06:49:29, last login @ 2013-01-20 06:49:29
  54. 0brabook5 registered @ 2013-01-20 06:51:04, last login @ 2013-01-20 06:51:04
  55. 0pocketcarbon28 registered @ 2013-01-20 06:55:47, last login @ 2013-01-20 06:55:47
  56. 0mittencard98 registered @ 2013-01-20 06:56:27, last login @ 2013-01-20 06:56:27
  57. 0acv registered @ 2013-01-20 06:57:51, last login @ 2013-01-20 06:57:51
  58. 0lute13word registered @ 2013-01-20 06:58:26, last login @ 2013-01-20 06:58:26
  59. 0violet66domain registered @ 2013-01-20 06:59:47, last login @ 2013-01-20 06:59:47
  60. 0turretcart8 registered @ 2013-01-20 07:00:01, last login @ 2013-01-20 07:00:01
  61. 0skypigeon6 registered @ 2013-01-20 07:01:04, last login @ 2013-01-20 07:01:04
  62. 0lentil24icon registered @ 2013-01-20 07:04:01, last login @ 2013-01-20 07:51:12
  63. 0plot8cost registered @ 2013-01-20 07:07:30, last login @ 2013-01-20 07:07:30
  64. 0pricenapkin06 registered @ 2013-01-20 07:13:40, last login @ 2013-01-20 07:58:27
  65. 0claveshirt6 registered @ 2013-01-20 07:14:19, last login @ 2013-01-20 07:55:24
  66. 0uganda6denim registered @ 2013-01-20 07:15:51, last login @ 2013-01-20 07:15:51
  67. 0feetsofa88 registered @ 2013-01-20 07:19:19, last login @ 2013-01-20 07:19:19
  68. 0sacamento registered @ 2013-01-20 07:20:17, last login @ 2013-01-20 07:20:17
  69. 0towncall7 registered @ 2013-01-20 07:20:31, last login @ 2013-01-20 07:20:31
  70. 0closetnepal9 registered @ 2013-01-20 07:22:40, last login @ 2013-01-20 07:22:40
  71. 0cougar2hall registered @ 2013-01-20 07:25:06, last login @ 2013-01-20 07:25:06
  72. 0saw83pound registered @ 2013-01-20 07:25:17, last login @ 2013-01-20 07:25:17
  73. 0cross87monday registered @ 2013-01-20 07:26:41, last login @ 2013-01-20 07:26:41
  74. 0friend49art registered @ 2013-01-20 07:27:40, last login @ 2013-01-20 07:27:40
  75. 0ramba607 registered @ 2013-01-20 07:28:06, last login @ 2013-01-20 07:28:06
  76. 0appeal5scarf registered @ 2013-01-20 07:28:16, last login @ 2013-01-20 07:28:16
  77. 0jaguarokra20 registered @ 2013-01-20 07:29:03, last login @ 2013-01-20 07:29:03
  78. 0greecefeet7 registered @ 2013-01-20 07:29:41, last login @ 2013-01-20 07:29:41
  79. 0talk6sense registered @ 2013-01-20 07:31:07, last login @ 2013-01-20 07:31:07
  80. 0FernandoEBastos registered @ 2013-01-20 07:33:06, last login @ 2013-01-20 07:33:06
  81. 0blouse32lion registered @ 2013-01-20 07:33:08, last login @ 2013-01-20 07:33:08
  82. 0laughaction2 registered @ 2013-01-20 07:34:39, last login @ 2013-01-20 07:34:39
  83. 0body56drain registered @ 2013-01-20 07:34:54, last login @ 2013-01-20 07:34:54
  84. 0temper98brand registered @ 2013-01-20 07:36:25, last login @ 2013-01-20 07:59:22
  85. 0lead74whale registered @ 2013-01-20 07:38:03, last login @ 2013-01-20 07:38:03
  86. 0sugarsampan78 registered @ 2013-01-20 07:38:49, last login @ 2013-01-20 07:38:49
  87. 0owl34cat registered @ 2013-01-20 07:40:05, last login @ 2013-01-20 07:40:05
  88. 0MileTwete registered @ 2013-01-20 07:41:00, last login @ 2013-01-20 07:41:00
  89. 0rugby42nest registered @ 2013-01-20 07:41:58, last login @ 2013-01-20 07:41:58
  90. 0debtor48legal registered @ 2013-01-20 07:43:16, last login @ 2013-01-20 07:43:16
  91. 0vessel1love registered @ 2013-01-20 07:44:12, last login @ 2013-01-20 07:44:12
  92. 0sea74window registered @ 2013-01-20 07:46:11, last login @ 2013-01-20 07:46:11
  93. 0daterange9 registered @ 2013-01-20 07:52:29, last login @ 2013-01-20 07:52:29
  94. 0lathe5liquor registered @ 2013-01-20 07:53:49, last login @ 2013-01-20 07:53:49
  95. 0antface5 registered @ 2013-01-20 07:55:32, last login @ 2013-01-20 07:55:32
  96. 0chick0jute registered @ 2013-01-20 07:57:40, last login @ 2013-01-20 07:57:40
  97. 0vacuum10nephew registered @ 2013-01-20 07:58:50, last login @ 2013-01-20 07:58:50
  98. 0tenor8airbus registered @ 2013-01-20 08:06:02, last login @ 2013-01-20 08:06:02
  99. 0inch0cause registered @ 2013-01-20 08:07:58, last login @ 2013-01-20 08:58:32
  100. 0story60avenue registered @ 2013-01-20 08:11:12, last login @ 2013-01-20 08:11:12
  101. 0sphynxtea1 registered @ 2013-01-20 08:11:35, last login @ 2013-01-20 08:11:35

More...

[5533] [5532] [5531] [5530] [5529] [5528] [5527] [5526] [5525] [5524] [5523] [5522] [5521] [5520] [5519] [5518] [5517] [5516] [5515] [5514] ...[1]
Back to Top